Time;durP1;ratioP1;P1;durP2;ratioP2;P2;SDS_P1;SDS_P2;PMS_P1;PMS_P2;Temp;Humidity;BMP_temperature;BMP_pressure;BME280_temperature;BME280_humidity;BME280_pressure;Samples;Min_cycle;Max_cycle;Signal;HPM_P1;HPM_P2
2022/04/13 00:01:34;;;;;;;25.33;11.85;;;3.40;99.90;;;;;;19840607;29;20055;-53
2022/04/13 00:11:37;;;;;;;23.88;11.77;;;3.60;99.90;;;;;;19877836;29;20088;-52
2022/04/13 00:21:39;;;;;;;21.95;11.75;;;3.80;99.90;;;;;;19876224;29;20107;-54
2022/04/13 00:31:43;;;;;;;19.63;10.80;;;3.80;99.90;;;;;;19829460;29;20690;-55
2022/04/13 00:41:45;;;;;;;25.73;12.80;;;3.80;99.90;;;;;;19874232;29;20079;-48
2022/04/13 00:51:48;;;;;;;28.15;13.40;;;3.90;99.90;;;;;;19829490;29;20199;-55
2022/04/13 01:01:54;;;;;;;22.17;12.15;;;4.00;99.90;;;;;;19874527;29;20128;-47
2022/04/13 01:11:56;;;;;;;22.23;11.30;;;3.70;99.90;;;;;;19863262;29;20408;-54
2022/04/13 01:22:03;;;;;;;21.98;11.68;;;3.80;99.90;;;;;;19844601;29;20538;-50
2022/04/13 01:32:07;;;;;;;22.08;11.65;;;3.80;99.90;;;;;;19873050;29;20051;-52
2022/04/13 01:42:11;;;;;;;20.90;11.38;;;3.70;99.90;;;;;;19860740;29;20043;-52
2022/04/13 01:52:13;;;;;;;21.30;11.85;;;3.80;99.90;;;;;;19826969;29;20100;-49
2022/04/13 02:02:16;;;;;;;24.13;12.23;;;3.60;99.90;;;;;;19829331;29;20539;-52
2022/04/13 02:12:19;;;;;;;21.85;12.43;;;3.50;99.90;;;;;;19927660;29;20078;-50
2022/04/13 02:22:21;;;;;;;21.13;11.55;;;3.30;99.90;;;;;;19911091;29;20193;-48
2022/04/13 02:32:24;;;;;;;26.58;13.52;;;3.20;99.90;;;;;;19887156;29;20124;-51
2022/04/13 02:42:34;;;;;;;26.77;13.95;;;3.00;99.90;;;;;;19933849;29;20103;-49
2022/04/13 02:52:37;;;;;;;23.15;12.68;;;2.80;99.90;;;;;;19756700;29;20083;-50
2022/04/13 03:02:41;;;;;;;28.50;13.75;;;2.70;99.90;;;;;;19723860;30;20143;-51
2022/04/13 03:12:44;;;;;;;28.85;13.70;;;2.60;99.90;;;;;;19723715;30;20083;-49
2022/04/13 03:22:46;;;;;;;28.27;14.45;;;2.50;99.90;;;;;;19722182;30;20113;-54
2022/04/13 03:32:51;;;;;;;27.95;14.93;;;2.60;99.90;;;;;;19791888;29;20334;-54
2022/04/13 03:42:54;;;;;;;30.92;15.40;;;2.60;99.90;;;;;;19878691;29;20352;-48
2022/04/13 03:52:56;;;;;;;29.52;14.60;;;2.60;99.90;;;;;;19824076;29;20377;-51
2022/04/13 04:02:58;;;;;;;30.83;16.52;;;2.40;99.90;;;;;;19802072;29;20047;-51
2022/04/13 04:13:01;;;;;;;32.50;15.63;;;2.40;99.90;;;;;;19875222;29;20034;-49
2022/04/13 04:23:04;;;;;;;29.70;13.88;;;2.50;99.90;;;;;;19844011;29;20054;-47
2022/04/13 04:33:08;;;;;;;32.30;15.00;;;2.50;99.90;;;;;;19806313;29;20491;-54
2022/04/13 04:43:11;;;;;;;30.40;15.02;;;2.40;99.90;;;;;;19875431;29;20038;-52
2022/04/13 04:53:14;;;;;;;33.42;16.20;;;2.50;99.90;;;;;;19873710;29;20499;-51
2022/04/13 05:03:16;;;;;;;27.30;14.95;;;2.50;99.90;;;;;;19858464;29;20039;-48
2022/04/13 05:13:19;;;;;;;28.55;14.23;;;2.80;99.90;;;;;;19861777;29;20038;-47
2022/04/13 05:23:22;;;;;;;31.60;13.40;;;3.00;99.90;;;;;;19855311;29;20204;-48
2022/04/13 05:33:24;;;;;;;25.58;13.02;;;3.40;99.90;;;;;;19831759;29;20069;-49
2022/04/13 05:43:33;;;;;;;25.80;13.40;;;3.50;99.90;;;;;;19835889;29;20067;-51
2022/04/13 05:53:36;;;;;;;26.48;13.32;;;3.70;99.90;;;;;;19796767;29;20089;-52
2022/04/13 06:03:39;;;;;;;27.17;13.13;;;3.90;99.90;;;;;;19798106;29;20122;-48
2022/04/13 06:13:41;;;;;;;27.27;13.30;;;4.10;99.90;;;;;;19839904;29;20418;-51
2022/04/13 06:23:47;;;;;;;23.65;11.38;;;4.40;99.90;;;;;;19861968;29;20070;-52
2022/04/13 06:33:49;;;;;;;27.20;12.35;;;4.90;99.90;;;;;;19818424;29;20403;-48
2022/04/13 06:43:53;;;;;;;22.88;12.40;;;5.60;99.90;;;;;;19865043;29;20078;-53
2022/04/13 06:53:55;;;;;;;19.27;9.73;;;6.70;99.90;;;;;;19808645;29;20055;-54
2022/04/13 07:03:58;;;;;;;14.65;8.27;;;8.10;99.90;;;;;;19856157;29;20050;-55
2022/04/13 07:14:00;;;;;;;12.25;7.20;;;9.30;99.90;;;;;;19806374;29;20043;-57
2022/04/13 07:24:03;;;;;;;14.30;8.40;;;10.70;99.90;;;;;;19830635;29;20078;-57
2022/04/13 07:34:06;;;;;;;12.40;8.07;;;11.50;99.90;;;;;;19791087;29;20086;-56
2022/04/13 07:44:08;;;;;;;16.15;8.27;;;11.90;99.90;;;;;;19811007;29;20079;-55
2022/04/13 07:54:11;;;;;;;11.27;7.35;;;12.40;99.90;;;;;;19795047;29;20507;-57
2022/04/13 08:04:14;;;;;;;31.50;8.10;;;12.40;99.90;;;;;;19784883;29;20487;-57
2022/04/13 08:14:16;;;;;;;12.63;7.00;;;12.80;99.90;;;;;;19817061;29;20042;-55
2022/04/13 08:24:19;;;;;;;14.63;8.32;;;13.40;99.90;;;;;;19864566;29;20103;-57
2022/04/13 08:34:22;;;;;;;13.90;8.70;;;13.80;99.00;;;;;;19863640;29;20038;-57
2022/04/13 08:44:46;;;;;;;15.25;8.48;;;14.20;98.50;;;;;;19843873;29;20122;-56
2022/04/13 08:55:01;;;;;;;13.68;9.20;;;14.40;99.50;;;;;;19862552;29;20460;-57
2022/04/13 09:05:10;;;;;;;13.77;8.55;;;14.40;99.10;;;;;;19873385;29;20078;-55
2022/04/13 09:15:14;;;;;;;14.30;8.77;;;14.40;98.40;;;;;;19858021;29;20091;-56
2022/04/13 09:25:20;;;;;;;15.82;9.40;;;14.60;97.40;;;;;;19823097;29;20051;-57
2022/04/13 09:35:23;;;;;;;14.93;8.30;;;14.90;98.40;;;;;;19860716;29;20111;-57
2022/04/13 09:45:31;;;;;;;15.43;8.88;;;15.10;98.80;;;;;;19871284;29;20070;-57
2022/04/13 09:55:52;;;;;;;13.83;8.67;;;15.30;98.50;;;;;;19869927;29;20054;-58
2022/04/13 10:05:56;;;;;;;16.85;9.02;;;15.40;98.70;;;;;;19811369;29;20495;-57
2022/04/13 10:16:08;;;;;;;16.63;11.13;;;15.50;98.90;;;;;;19817760;29;20035;-56
2022/04/13 10:26:10;;;;;;;19.50;13.07;;;15.60;98.10;;;;;;19851198;29;20039;-57
2022/04/13 10:36:17;;;;;;;24.08;14.80;;;14.40;99.50;;;;;;19833315;29;20407;-52
2022/04/13 10:46:21;;;;;;;18.85;12.27;;;13.80;99.80;;;;;;19882892;29;20487;-58
2022/04/13 10:56:30;;;;;;;17.63;12.18;;;13.90;99.90;;;;;;19810656;29;20147;-58
2022/04/13 11:06:35;;;;;;;24.35;13.73;;;13.90;99.80;;;;;;19806805;29;20051;-58
2022/04/13 11:16:37;;;;;;;21.77;14.32;;;14.50;99.90;;;;;;19832891;29;20101;-55
2022/04/13 11:26:41;;;;;;;19.98;13.82;;;15.10;99.90;;;;;;19825110;29;20047;-58
2022/04/13 11:36:51;;;;;;;18.70;14.70;;;16.30;97.40;;;;;;19804704;29;20043;-56
2022/04/13 11:47:13;;;;;;;26.15;14.20;;;16.80;98.50;;;;;;19804017;29;20042;-57
2022/04/13 11:57:16;;;;;;;22.00;14.95;;;16.70;98.90;;;;;;19799960;29;20122;-58
2022/04/13 12:07:19;;;;;;;24.23;15.00;;;16.70;97.80;;;;;;19852252;29;20055;-53
2022/04/13 12:17:22;;;;;;;21.42;14.57;;;15.60;97.70;;;;;;19839696;29;20544;-58
2022/04/13 12:27:24;;;;;;;19.35;15.02;;;16.50;99.10;;;;;;19862136;29;20046;-58
2022/04/13 12:37:27;;;;;;;21.42;14.55;;;17.50;97.90;;;;;;19852473;29;20091;-59
2022/04/13 12:47:29;;;;;;;18.23;13.93;;;18.50;97.70;;;;;;19847783;29;20099;-59
2022/04/13 12:57:32;;;;;;;23.48;15.63;;;18.30;95.20;;;;;;19827005;29;20082;-59
2022/04/13 13:07:36;;;;;;;17.83;13.52;;;18.30;95.10;;;;;;19873265;29;20043;-59
2022/04/13 13:17:44;;;;;;;28.42;15.38;;;18.30;94.50;;;;;;19808701;29;20039;-59
2022/04/13 13:27:55;;;;;;;17.75;13.88;;;18.10;93.50;;;;;;19798556;29;20048;-57
2022/04/13 13:38:18;;;;;;;20.75;13.85;;;17.80;96.60;;;;;;19813374;29;20104;-59
2022/04/13 13:48:25;;;;;;;19.95;13.52;;;17.60;96.00;;;;;;19811802;29;20104;-59
2022/04/13 13:58:28;;;;;;;17.50;12.98;;;17.40;95.40;;;;;;19811531;29;20118;-56
2022/04/13 14:08:31;;;;;;;17.67;12.75;;;17.20;94.70;;;;;;19822870;29;20070;-57
2022/04/13 14:18:33;;;;;;;17.95;12.68;;;17.10;94.70;;;;;;19813334;29;20096;-59
2022/04/13 14:28:36;;;;;;;17.00;12.88;;;16.90;94.80;;;;;;19809480;29;20105;-58
2022/04/13 14:38:41;;;;;;;17.33;12.25;;;17.00;94.20;;;;;;19840951;29;20043;-58
2022/04/13 14:48:44;;;;;;;17.52;12.60;;;17.00;95.50;;;;;;19850526;29;20051;-57
2022/04/13 14:58:46;;;;;;;16.73;11.85;;;17.00;94.40;;;;;;19834290;29;20054;-56
2022/04/13 15:08:49;;;;;;;16.00;11.43;;;16.30;94.80;;;;;;19836740;29;20106;-59
2022/04/13 15:18:52;;;;;;;15.88;11.50;;;15.70;96.00;;;;;;19805864;29;20051;-55
2022/04/13 15:28:56;;;;;;;16.08;11.38;;;15.20;95.70;;;;;;19805399;29;20537;-53
2022/04/13 15:38:59;;;;;;;16.83;10.65;;;14.60;96.40;;;;;;19804516;29;20126;-59
2022/04/13 15:49:02;;;;;;;15.45;10.52;;;14.10;96.60;;;;;;19804296;29;20533;-58
2022/04/13 15:59:05;;;;;;;17.63;10.40;;;13.70;97.10;;;;;;19847228;29;20047;-53
2022/04/13 16:09:10;;;;;;;17.42;9.45;;;13.30;98.00;;;;;;19876086;29;20394;-50
2022/04/13 16:19:12;;;;;;;18.08;10.30;;;13.00;98.40;;;;;;19819418;29;20090;-58
2022/04/13 16:29:15;;;;;;;15.20;9.98;;;12.60;99.80;;;;;;19846158;29;20507;-55
2022/04/13 16:39:17;;;;;;;16.58;9.88;;;12.30;99.80;;;;;;19875153;29;20555;-58
2022/04/13 16:49:20;;;;;;;16.30;10.18;;;12.00;99.90;;;;;;19815290;29;20389;-49
2022/04/13 16:59:22;;;;;;;16.15;9.43;;;11.80;99.90;;;;;;19799188;29;20066;-58
2022/04/13 17:09:25;;;;;;;15.75;8.73;;;11.50;99.90;;;;;;19806981;29;20093;-58
2022/04/13 17:19:29;;;;;;;16.10;9.52;;;11.20;99.90;;;;;;19828323;29;20384;-58
2022/04/13 17:29:31;;;;;;;15.10;9.60;;;10.70;99.90;;;;;;19831704;29;20112;-58
2022/04/13 17:39:34;;;;;;;17.05;9.63;;;10.10;99.90;;;;;;19797975;29;20493;-58
2022/04/13 17:49:37;;;;;;;16.33;10.13;;;9.60;99.90;;;;;;19829324;29;20047;-50
2022/04/13 17:59:39;;;;;;;20.30;11.80;;;8.90;99.90;;;;;;19853769;29;20132;-57
2022/04/13 18:09:42;;;;;;;23.77;13.52;;;8.40;99.90;;;;;;19849446;29;20063;-48
2022/04/13 18:19:45;;;;;;;24.55;13.13;;;7.80;99.90;;;;;;19878136;29;20451;-50
2022/04/13 18:29:49;;;;;;;23.73;13.43;;;7.40;99.90;;;;;;19863352;29;20039;-49
2022/04/13 18:39:51;;;;;;;21.60;14.50;;;7.10;99.90;;;;;;19808848;29;20124;-50
2022/04/13 18:49:54;;;;;;;26.70;15.57;;;6.90;99.90;;;;;;19850756;29;20039;-49
2022/04/13 18:59:56;;;;;;;20.70;13.57;;;6.80;99.90;;;;;;19855917;29;20047;-50
2022/04/13 19:09:59;;;;;;;30.77;17.05;;;6.70;99.90;;;;;;19881542;29;20123;-56
2022/04/13 19:20:04;;;;;;;28.85;16.73;;;6.60;99.90;;;;;;19880360;29;20088;-48
2022/04/13 19:30:09;;;;;;;24.95;15.18;;;6.50;99.90;;;;;;19879898;29;20502;-55
2022/04/13 19:40:11;;;;;;;22.52;13.50;;;6.40;99.90;;;;;;19830618;29;20491;-50
2022/04/13 19:50:14;;;;;;;19.15;12.05;;;6.40;99.90;;;;;;19826470;29;20399;-49
2022/04/13 20:00:17;;;;;;;20.73;12.75;;;6.30;99.90;;;;;;19855206;29;20082;-51
2022/04/13 20:10:21;;;;;;;23.98;15.65;;;6.30;99.90;;;;;;19877592;29;20099;-50
2022/04/13 20:20:25;;;;;;;16.88;10.88;;;6.00;99.90;;;;;;19845668;29;20084;-48
2022/04/13 20:30:28;;;;;;;15.88;9.25;;;5.80;99.90;;;;;;19831350;29;20519;-47
2022/04/13 20:40:33;;;;;;;18.02;10.27;;;5.70;99.90;;;;;;19870986;29;20495;-52
2022/04/13 20:50:37;;;;;;;15.63;10.02;;;5.70;99.90;;;;;;19833263;29;20038;-55
2022/04/13 21:00:41;;;;;;;8.50;4.32;;;5.50;99.90;;;;;;19805666;29;20083;-50
2022/04/13 21:10:44;;;;;;;5.25;3.25;;;5.50;99.90;;;;;;19838659;29;20491;-48
2022/04/13 21:20:47;;;;;;;5.45;3.20;;;5.50;99.90;;;;;;19867388;29;20143;-46
2022/04/13 21:30:49;;;;;;;8.43;3.58;;;5.60;99.90;;;;;;19854734;29;20483;-50
2022/04/13 21:40:52;;;;;;;9.50;5.10;;;5.60;99.90;;;;;;19864695;29;20055;-50
2022/04/13 21:50:55;;;;;;;9.30;5.50;;;5.50;99.90;;;;;;19831734;29;20035;-48
2022/04/13 22:00:57;;;;;;;8.32;5.00;;;5.20;99.90;;;;;;19829273;29;20111;-51
2022/04/13 22:11:01;;;;;;;9.85;4.97;;;5.10;99.90;;;;;;19885846;29;20046;-48
2022/04/13 22:21:04;;;;;;;10.18;5.50;;;5.00;99.90;;;;;;19882510;29;20459;-49
2022/04/13 22:31:07;;;;;;;7.55;4.50;;;5.10;99.90;;;;;;19814983;29;20416;-53
2022/04/13 22:41:09;;;;;;;6.97;4.43;;;5.20;99.90;;;;;;19827129;29;20117;-53
2022/04/13 22:51:12;;;;;;;7.57;3.92;;;5.30;99.90;;;;;;19850170;29;20042;-47
2022/04/13 23:01:14;;;;;;;8.15;3.60;;;5.30;99.90;;;;;;19847331;29;20059;-46
2022/04/13 23:11:17;;;;;;;7.35;3.65;;;5.60;99.90;;;;;;19882484;29;20054;-53
2022/04/13 23:21:19;;;;;;;9.32;3.85;;;5.50;99.90;;;;;;19845954;29;20449;-50
2022/04/13 23:31:22;;;;;;;6.63;3.50;;;5.30;99.90;;;;;;19816972;29;20047;-50
2022/04/13 23:41:25;;;;;;;4.68;2.63;;;5.30;99.90;;;;;;19816402;29;20040;-54
2022/04/13 23:51:28;;;;;;;7.40;2.70;;;5.60;99.90;;;;;;19817954;29;20068;-52
